Time;durP1;ratioP1;P1;durP2;ratioP2;P2;SDS_P1;SDS_P2;PMS_P1;PMS_P2;Temp;Humidity;BMP_temperature;BMP_pressure;BME280_temperature;BME280_humidity;BME280_pressure;Samples;Min_cycle;Max_cycle;Signal;HPM_P1;HPM_P2
2022/11/10 00:01:06;;;;;;;5.32;4.55;;;9.10;99.90;;;;;;5064336;28;20230;-74
2022/11/10 00:03:33;;;;;;;5.45;4.57;;;9.10;99.90;;;;;;5065393;28;20223;-74
2022/11/10 00:06:03;;;;;;;4.50;4.10;;;9.10;99.90;;;;;;5061442;28;20225;-73
2022/11/10 00:08:30;;;;;;;4.85;4.43;;;9.10;99.90;;;;;;5059882;28;20228;-74
2022/11/10 00:11:00;;;;;;;4.82;4.43;;;9.10;99.90;;;;;;5059537;28;20717;-73
2022/11/10 00:13:30;;;;;;;3.90;3.60;;;9.10;99.90;;;;;;5060842;28;20211;-73
2022/11/10 00:18:44;;;;;;;4.00;3.70;;;9.00;99.90;;;;;;5063458;28;20265;-73
2022/11/10 00:21:13;;;;;;;4.55;4.20;;;8.90;99.90;;;;;;5069708;28;20218;-72
2022/11/10 00:23:40;;;;;;;3.67;3.38;;;8.90;99.90;;;;;;5058257;28;20272;-72
2022/11/10 00:26:14;;;;;;;3.92;3.63;;;8.90;99.90;;;;;;5060744;28;20226;-72
2022/11/10 00:28:41;;;;;;;3.72;3.42;;;8.90;99.90;;;;;;5057272;28;20227;-72
2022/11/10 00:31:09;;;;;;;3.33;3.03;;;8.90;99.90;;;;;;5063955;28;20218;-72
2022/11/10 00:33:36;;;;;;;4.20;3.80;;;8.90;99.90;;;;;;5064810;28;20215;-72
2022/11/10 00:36:04;;;;;;;3.83;3.53;;;9.00;99.90;;;;;;5062748;28;20247;-72
2022/11/10 00:38:31;;;;;;;3.95;3.65;;;9.00;99.90;;;;;;5059036;28;20218;-72
2022/11/10 00:40:59;;;;;;;3.88;3.58;;;9.00;99.90;;;;;;5061139;28;20215;-72
2022/11/10 00:43:28;;;;;;;3.50;3.20;;;9.00;99.90;;;;;;5049479;28;20234;-72
2022/11/10 00:45:56;;;;;;;3.45;3.25;;;9.00;99.90;;;;;;5058989;28;20199;-72
2022/11/10 00:48:24;;;;;;;3.40;3.20;;;9.00;99.90;;;;;;5063053;28;20710;-73
2022/11/10 00:50:52;;;;;;;3.35;3.15;;;9.00;99.90;;;;;;5062519;28;20748;-72
2022/11/10 00:53:19;;;;;;;3.08;2.88;;;9.00;99.90;;;;;;5058783;28;20225;-73
2022/11/10 00:55:47;;;;;;;3.17;2.97;;;9.10;99.90;;;;;;5060025;28;20195;-73
2022/11/10 00:58:14;;;;;;;3.10;2.90;;;9.10;99.90;;;;;;5053191;28;20283;-73
2022/11/10 01:00:43;;;;;;;3.08;2.88;;;9.10;99.90;;;;;;5058233;28;20232;-72
2022/11/10 01:03:14;;;;;;;2.95;2.75;;;9.10;99.90;;;;;;5064654;28;20257;-72
2022/11/10 01:05:42;;;;;;;3.08;2.88;;;9.10;99.90;;;;;;5060267;28;20278;-73
2022/11/10 01:08:09;;;;;;;3.30;3.00;;;9.10;99.90;;;;;;5059531;28;20730;-73
2022/11/10 01:10:36;;;;;;;3.22;2.92;;;9.10;99.90;;;;;;5056712;28;20218;-73
2022/11/10 01:13:03;;;;;;;3.17;2.97;;;9.10;99.90;;;;;;5056838;28;20225;-73
2022/11/10 01:15:31;;;;;;;3.08;2.88;;;9.10;99.90;;;;;;5058839;28;20202;-72
2022/11/10 01:18:00;;;;;;;2.90;2.70;;;9.10;99.90;;;;;;5050727;28;20215;-72
2022/11/10 01:20:27;;;;;;;2.83;2.65;;;9.20;99.90;;;;;;5063974;28;20214;-73
2022/11/10 01:22:54;;;;;;;3.20;3.00;;;9.20;99.90;;;;;;5061457;28;20245;-73
2022/11/10 01:25:21;;;;;;;3.45;3.15;;;9.20;99.90;;;;;;5067721;28;20211;-73
2022/11/10 01:27:48;;;;;;;3.50;3.20;;;9.20;99.90;;;;;;5063020;28;20230;-73
2022/11/10 01:30:16;;;;;;;3.25;3.05;;;9.10;99.90;;;;;;5053409;28;20687;-72
2022/11/10 01:32:43;;;;;;;3.72;3.42;;;9.10;99.90;;;;;;5062864;28;20225;-72
2022/11/10 01:35:12;;;;;;;3.75;3.45;;;9.10;99.90;;;;;;5059239;28;20207;-73
2022/11/10 01:37:39;;;;;;;3.70;3.40;;;9.10;99.90;;;;;;5061299;28;20218;-72
2022/11/10 01:40:08;;;;;;;3.55;3.35;;;9.10;99.90;;;;;;5061780;28;20276;-73
2022/11/10 01:42:48;;;;;;;3.47;3.28;;;9.00;99.90;;;;;;5062981;28;20218;-73
2022/11/10 01:45:47;;;;;;;3.10;2.85;;;9.00;99.90;;;;;;5057605;28;20195;-72
2022/11/10 01:48:19;;;;;;;3.78;3.47;;;9.00;99.90;;;;;;5062286;28;20583;-72
2022/11/10 01:50:49;;;;;;;3.33;3.13;;;9.00;99.90;;;;;;5054731;28;20214;-72
2022/11/10 01:53:22;;;;;;;3.25;3.05;;;9.00;99.90;;;;;;5054637;28;20257;-72
2022/11/10 01:55:49;;;;;;;2.85;2.70;;;9.10;99.90;;;;;;5062687;28;20644;-73
2022/11/10 01:58:21;;;;;;;3.28;3.08;;;9.10;99.90;;;;;;5058445;28;20222;-72
2022/11/10 02:00:49;;;;;;;3.40;3.10;;;9.10;99.90;;;;;;5055523;28;20229;-72
2022/11/10 02:03:24;;;;;;;3.60;3.30;;;9.00;99.90;;;;;;5050094;28;20585;-72
2022/11/10 02:05:53;;;;;;;3.58;3.28;;;9.00;99.90;;;;;;5059759;28;20194;-72
2022/11/10 02:08:22;;;;;;;3.58;3.28;;;9.00;99.90;;;;;;5058150;28;20883;-72
2022/11/10 02:10:49;;;;;;;3.40;3.20;;;8.90;99.90;;;;;;5061546;28;20280;-72
2022/11/10 02:13:17;;;;;;;4.07;3.78;;;8.90;99.90;;;;;;5057279;28;20218;-72
2022/11/10 02:15:44;;;;;;;4.03;3.72;;;8.90;99.90;;;;;;5054886;28;20208;-72
2022/11/10 02:18:11;;;;;;;4.03;3.72;;;8.90;99.90;;;;;;5075334;28;20215;-73
2022/11/10 02:20:39;;;;;;;4.13;3.83;;;8.90;99.90;;;;;;5061482;28;20210;-72
2022/11/10 02:23:35;;;;;;;4.20;3.90;;;8.90;99.90;;;;;;5059883;28;20218;-73
2022/11/10 02:26:04;;;;;;;3.40;3.20;;;8.90;99.90;;;;;;5061037;28;20673;-73
2022/11/10 02:28:34;;;;;;;4.47;4.07;;;8.80;99.90;;;;;;5059516;28;20230;-73
2022/11/10 02:31:02;;;;;;;4.13;3.83;;;8.80;99.90;;;;;;5056168;28;20264;-73
2022/11/10 02:33:30;;;;;;;3.90;3.60;;;8.70;99.90;;;;;;5059599;28;20244;-72
2022/11/10 02:35:57;;;;;;;4.13;3.83;;;8.70;99.90;;;;;;5066354;28;20584;-72
2022/11/10 02:38:27;;;;;;;4.15;3.85;;;8.70;99.90;;;;;;5055139;28;20219;-72
2022/11/10 02:40:54;;;;;;;4.45;4.05;;;8.80;99.90;;;;;;5061675;28;20221;-72
2022/11/10 02:43:21;;;;;;;4.00;3.70;;;8.80;99.90;;;;;;5057597;28;20243;-72
2022/11/10 02:45:49;;;;;;;3.95;3.75;;;8.80;99.90;;;;;;5066959;28;20202;-72
2022/11/10 02:48:16;;;;;;;3.45;3.25;;;8.90;99.90;;;;;;5050479;28;20219;-72
2022/11/10 02:50:44;;;;;;;3.60;3.38;;;8.90;99.90;;;;;;5060580;28;20223;-72
2022/11/10 02:53:12;;;;;;;4.20;3.80;;;8.90;99.90;;;;;;5059571;28;20226;-72
2022/11/10 02:55:40;;;;;;;4.03;3.72;;;8.90;99.90;;;;;;5058310;28;20201;-72
2022/11/10 02:58:07;;;;;;;4.10;3.70;;;8.90;99.90;;;;;;5059576;28;20223;-72
2022/11/10 03:00:35;;;;;;;3.78;3.47;;;8.90;99.90;;;;;;5050935;28;20229;-72
2022/11/10 03:03:03;;;;;;;3.33;3.13;;;8.90;99.90;;;;;;5057237;28;20221;-72
2022/11/10 03:05:32;;;;;;;3.67;3.47;;;8.90;99.90;;;;;;5055514;28;20199;-72
2022/11/10 03:08:01;;;;;;;4.13;3.83;;;8.90;99.90;;;;;;5055556;28;20219;-73
2022/11/10 03:10:28;;;;;;;4.13;3.85;;;8.90;99.90;;;;;;5056528;28;20225;-72
2022/11/10 03:12:58;;;;;;;4.55;4.25;;;8.90;99.90;;;;;;5053186;28;20223;-72
2022/11/10 03:15:26;;;;;;;4.90;4.50;;;8.80;99.90;;;;;;5049917;28;20202;-72
2022/11/10 03:17:54;;;;;;;4.85;4.45;;;8.80;99.90;;;;;;5052835;28;20230;-72
2022/11/10 03:20:21;;;;;;;4.07;3.78;;;8.80;99.90;;;;;;5060126;28;20233;-73
2022/11/10 03:22:49;;;;;;;3.40;3.20;;;8.80;99.90;;;;;;5049691;28;20214;-73
2022/11/10 03:25:16;;;;;;;4.38;4.03;;;8.80;99.90;;;;;;5051806;28;20194;-72
2022/11/10 03:27:43;;;;;;;3.70;3.45;;;8.80;99.90;;;;;;5057569;28;20215;-73
2022/11/10 03:30:13;;;;;;;3.75;3.45;;;8.90;99.90;;;;;;5058974;28;20218;-73
2022/11/10 03:32:40;;;;;;;3.60;3.40;;;8.90;99.90;;;;;;5054968;28;20218;-73
2022/11/10 03:35:09;;;;;;;3.80;3.50;;;8.90;99.90;;;;;;5054589;28;20249;-73
2022/11/10 03:37:36;;;;;;;4.03;3.72;;;9.00;99.90;;;;;;5062008;28;20618;-73
2022/11/10 03:40:04;;;;;;;3.65;3.42;;;9.00;99.90;;;;;;5052882;28;20312;-73
2022/11/10 03:42:31;;;;;;;4.43;3.80;;;9.00;99.90;;;;;;5056990;28;20698;-73
2022/11/10 03:44:58;;;;;;;3.50;3.30;;;9.00;99.90;;;;;;5056255;28;20207;-74
2022/11/10 03:47:27;;;;;;;3.90;3.60;;;9.00;99.90;;;;;;5057416;28;20222;-73
2022/11/10 03:49:54;;;;;;;3.58;3.38;;;9.00;99.90;;;;;;5060523;28;20222;-73
2022/11/10 03:52:22;;;;;;;4.05;3.75;;;9.00;99.90;;;;;;5054977;28;20214;-74
2022/11/10 03:54:49;;;;;;;4.20;3.90;;;9.00;99.90;;;;;;5051431;28;20606;-73
2022/11/10 03:57:16;;;;;;;4.28;3.97;;;9.00;99.90;;;;;;5059966;28;20218;-73
2022/11/10 03:59:44;;;;;;;4.63;4.32;;;9.00;99.90;;;;;;5069082;28;20237;-73
2022/11/10 04:02:11;;;;;;;5.25;3.92;;;9.00;99.90;;;;;;5067141;28;20328;-73
2022/11/10 04:10:10;;;;;;;3.92;3.65;;;9.00;99.90;;;;;;5054978;28;20221;-73
2022/11/10 04:18:23;;;;;;;3.50;3.30;;;9.00;99.90;;;;;;5054103;28;20637;-73
2022/11/10 04:20:54;;;;;;;4.28;3.97;;;9.00;99.90;;;;;;5053872;28;20223;-73
2022/11/10 04:23:29;;;;;;;3.45;3.20;;;9.10;99.90;;;;;;5062715;28;20253;-73
2022/11/10 04:28:45;;;;;;;4.28;3.40;;;9.00;99.90;;;;;;5062871;28;20225;-73
2022/11/10 04:31:13;;;;;;;3.70;3.47;;;9.00;99.90;;;;;;5059528;28;20214;-73
2022/11/10 04:33:41;;;;;;;3.70;3.45;;;9.10;99.90;;;;;;5058099;28;20733;-73
2022/11/10 04:36:12;;;;;;;3.75;3.45;;;9.10;99.90;;;;;;5057188;28;20209;-72
2022/11/10 04:38:40;;;;;;;3.75;3.55;;;9.10;99.90;;;;;;5058459;28;20338;-73
2022/11/10 04:41:07;;;;;;;3.75;3.47;;;9.10;99.90;;;;;;5056357;28;20219;-72
2022/11/10 04:43:35;;;;;;;3.78;3.47;;;9.10;99.90;;;;;;5060062;28;20222;-72
2022/11/10 04:46:03;;;;;;;4.10;3.90;;;9.10;99.90;;;;;;5058527;28;20206;-73
2022/11/10 04:48:31;;;;;;;4.30;4.00;;;9.10;99.90;;;;;;5059595;28;20225;-72
2022/11/10 04:51:02;;;;;;;3.90;3.60;;;9.10;99.90;;;;;;5058576;28;20619;-72
2022/11/10 04:53:31;;;;;;;4.10;3.80;;;9.10;99.90;;;;;;5056519;28;20269;-72
2022/11/10 04:55:59;;;;;;;4.28;3.97;;;9.10;99.90;;;;;;5058365;28;20651;-72
2022/11/10 04:58:26;;;;;;;4.57;4.18;;;9.10;99.90;;;;;;5065167;28;20214;-72
2022/11/10 05:00:54;;;;;;;4.50;4.10;;;9.00;99.90;;;;;;5055126;28;20246;-73
2022/11/10 05:03:21;;;;;;;4.53;4.20;;;9.00;99.90;;;;;;5056129;28;20215;-73
2022/11/10 05:05:49;;;;;;;5.78;5.28;;;9.00;99.90;;;;;;5053616;28;20251;-73
2022/11/10 05:08:16;;;;;;;4.88;4.47;;;9.00;99.90;;;;;;5075082;28;20248;-73
2022/11/10 05:10:45;;;;;;;5.25;4.75;;;8.90;99.90;;;;;;5075644;28;20214;-74
2022/11/10 05:13:13;;;;;;;7.28;5.53;;;8.90;99.90;;;;;;5060901;28;20218;-72
2022/11/10 05:15:41;;;;;;;5.95;5.40;;;8.90;99.90;;;;;;5082761;22;20207;-78
2022/11/10 05:18:08;;;;;;;5.15;4.75;;;8.90;99.90;;;;;;5029927;28;20215;-77
2022/11/10 05:20:35;;;;;;;4.90;4.50;;;8.90;99.90;;;;;;5037209;28;20427;-78
2022/11/10 05:25:49;;;;;;;4.80;4.40;;;9.00;99.90;;;;;;5032106;28;20328;-77
2022/11/10 05:28:16;;;;;;;4.53;4.13;;;9.00;99.90;;;;;;5035252;28;20219;-77
2022/11/10 05:30:44;;;;;;;4.25;3.95;;;9.00;99.90;;;;;;5032905;28;20203;-76
2022/11/10 05:33:11;;;;;;;3.97;3.67;;;9.00;99.90;;;;;;5029773;28;20218;-76
2022/11/10 05:35:39;;;;;;;4.20;3.90;;;9.00;99.90;;;;;;5040222;28;20227;-80
2022/11/10 05:38:06;;;;;;;4.30;4.00;;;9.00;99.90;;;;;;5031642;28;20222;-79
2022/11/10 05:40:34;;;;;;;5.15;4.75;;;9.00;99.90;;;;;;5034930;28;20249;-76
2022/11/10 05:43:03;;;;;;;4.57;4.28;;;9.00;99.90;;;;;;5032173;28;20215;-76
2022/11/10 05:45:30;;;;;;;3.78;3.58;;;9.00;99.90;;;;;;5036676;28;20685;-75
2022/11/10 05:47:57;;;;;;;5.47;5.00;;;9.00;99.90;;;;;;5032405;28;20224;-79
2022/11/10 05:50:25;;;;;;;4.82;4.43;;;9.10;99.90;;;;;;5029145;28;20622;-76
2022/11/10 05:52:54;;;;;;;4.88;4.38;;;9.10;99.90;;;;;;5030266;28;20218;-76
2022/11/10 05:55:23;;;;;;;5.30;4.90;;;9.00;99.90;;;;;;5029783;28;20227;-77
2022/11/10 05:57:52;;;;;;;5.32;4.93;;;9.00;99.90;;;;;;5026583;28;20219;-78
2022/11/10 06:00:22;;;;;;;4.97;4.57;;;9.00;99.90;;;;;;5029264;28;20204;-75
2022/11/10 06:03:00;;;;;;;5.40;5.03;;;9.00;99.90;;;;;;5031487;28;20769;-79
2022/11/10 06:05:28;;;;;;;5.32;4.93;;;9.00;99.90;;;;;;5036610;28;20467;-77
2022/11/10 06:07:56;;;;;;;5.63;5.22;;;9.00;99.90;;;;;;5030009;28;20249;-80
2022/11/10 06:10:23;;;;;;;4.60;4.30;;;9.00;99.90;;;;;;5035402;28;20199;-77
2022/11/10 06:12:51;;;;;;;4.65;4.35;;;9.00;99.90;;;;;;5030832;28;20218;-77
2022/11/10 06:15:18;;;;;;;4.65;4.25;;;9.00;99.90;;;;;;5028448;28;20221;-79
2022/11/10 06:17:47;;;;;;;4.18;3.88;;;9.00;99.90;;;;;;5025638;28;20226;-76
2022/11/10 06:20:16;;;;;;;3.45;3.15;;;9.10;99.90;;;;;;5029805;28;20577;-78
2022/11/10 06:22:43;;;;;;;3.42;3.22;;;9.10;99.90;;;;;;5030982;28;20222;-81
2022/11/10 06:25:10;;;;;;;4.38;3.78;;;9.10;99.90;;;;;;5032419;28;20222;-77
2022/11/10 06:27:37;;;;;;;3.50;3.20;;;9.10;99.90;;;;;;5022974;28;20623;-77
2022/11/10 06:30:06;;;;;;;3.75;3.55;;;9.10;99.90;;;;;;5026003;28;20207;-77
2022/11/10 06:32:35;;;;;;;3.10;2.90;;;9.10;99.90;;;;;;5029436;28;20219;-76
2022/11/10 06:35:03;;;;;;;3.55;3.35;;;9.10;99.90;;;;;;5029182;28;20243;-80
2022/11/10 06:37:30;;;;;;;3.63;3.33;;;9.10;99.90;;;;;;5034849;28;20219;-77
2022/11/10 06:39:57;;;;;;;3.53;3.33;;;9.20;99.90;;;;;;5026800;28;20196;-77
2022/11/10 06:42:25;;;;;;;3.35;3.15;;;9.20;99.90;;;;;;5035257;28;20214;-77
2022/11/10 06:44:52;;;;;;;2.85;2.65;;;9.20;99.90;;;;;;5031313;28;20233;-78
2022/11/10 06:47:19;;;;;;;2.75;2.65;;;9.20;99.90;;;;;;5035181;28;20639;-78
2022/11/10 06:49:46;;;;;;;3.25;3.05;;;9.30;99.90;;;;;;5031410;28;20219;-78
2022/11/10 06:52:14;;;;;;;3.08;2.88;;;9.30;99.90;;;;;;5032501;28;20222;-78
2022/11/10 06:54:41;;;;;;;3.40;3.20;;;9.30;99.90;;;;;;5034718;28;20215;-78
2022/11/10 06:57:09;;;;;;;3.28;3.08;;;9.30;99.90;;;;;;5028660;28;20227;-78
2022/11/10 06:59:36;;;;;;;3.88;3.58;;;9.30;99.90;;;;;;5039542;28;20665;-79
2022/11/10 07:02:03;;;;;;;3.50;3.30;;;9.30;99.90;;;;;;5026789;28;20231;-78
2022/11/10 07:04:30;;;;;;;3.78;3.47;;;9.40;99.90;;;;;;5030119;28;20206;-77
2022/11/10 07:06:57;;;;;;;4.32;4.03;;;9.40;99.90;;;;;;5033050;28;20227;-78
2022/11/10 07:09:26;;;;;;;3.92;3.67;;;9.40;99.90;;;;;;5031869;28;20211;-78
2022/11/10 07:11:53;;;;;;;3.95;3.72;;;9.50;99.90;;;;;;5030259;28;20228;-79
2022/11/10 07:14:20;;;;;;;3.88;3.63;;;9.50;99.90;;;;;;5033097;28;20210;-78
2022/11/10 07:16:47;;;;;;;4.03;3.72;;;9.60;99.90;;;;;;5039889;28;20206;-77
2022/11/10 07:19:14;;;;;;;4.78;4.38;;;9.70;99.90;;;;;;5034879;28;20213;-77
2022/11/10 07:21:41;;;;;;;5.50;5.00;;;9.70;99.90;;;;;;5039458;28;20245;-76
2022/11/10 07:24:09;;;;;;;10.52;5.25;;;9.70;99.90;;;;;;5034543;28;20196;-77
2022/11/10 07:26:37;;;;;;;6.78;5.65;;;9.70;99.90;;;;;;5030609;28;20223;-82
2022/11/10 07:29:04;;;;;;;5.90;5.40;;;9.70;99.90;;;;;;5042552;28;20223;-78
2022/11/10 07:31:32;;;;;;;6.35;5.85;;;9.60;99.90;;;;;;5029594;28;20207;-80
2022/11/10 07:33:59;;;;;;;6.60;6.00;;;9.50;99.90;;;;;;5035579;28;20204;-77
2022/11/10 07:36:27;;;;;;;6.00;5.60;;;9.50;99.90;;;;;;5041449;28;20226;-83
2022/11/10 07:38:55;;;;;;;6.13;5.63;;;9.40;99.90;;;;;;5037101;28;20298;-77
2022/11/10 07:41:22;;;;;;;6.50;6.00;;;9.40;99.90;;;;;;5034990;28;20290;-79
2022/11/10 07:43:50;;;;;;;6.65;6.13;;;9.40;99.90;;;;;;5034586;28;20282;-77
2022/11/10 07:46:17;;;;;;;7.20;6.60;;;9.40;99.90;;;;;;5032042;28;20242;-75
2022/11/10 07:48:44;;;;;;;6.78;6.18;;;9.40;99.90;;;;;;5031586;28;20237;-77
2022/11/10 07:51:12;;;;;;;6.10;5.43;;;9.50;99.90;;;;;;5030474;28;20228;-78
2022/11/10 07:53:40;;;;;;;5.63;5.22;;;9.50;99.90;;;;;;5024889;28;20231;-75
2022/11/10 07:56:07;;;;;;;5.57;5.18;;;9.60;99.90;;;;;;5030867;28;20310;-76
2022/11/10 07:58:34;;;;;;;5.30;4.90;;;9.70;99.90;;;;;;5026109;28;20219;-77
2022/11/10 08:01:03;;;;;;;6.03;5.53;;;9.80;99.90;;;;;;5033903;28;20199;-77
2022/11/10 08:03:30;;;;;;;5.72;5.32;;;9.80;99.90;;;;;;5038046;28;20219;-77
2022/11/10 08:05:57;;;;;;;4.95;4.65;;;9.80;99.90;;;;;;5034497;28;20226;-77
2022/11/10 08:08:24;;;;;;;5.00;4.70;;;9.90;99.90;;;;;;5035222;28;20230;-75
2022/11/10 08:10:51;;;;;;;5.32;4.93;;;9.90;99.90;;;;;;5037606;28;20200;-74
2022/11/10 08:13:18;;;;;;;6.53;6.03;;;9.90;99.90;;;;;;5035623;28;20223;-78
2022/11/10 08:15:46;;;;;;;7.43;6.75;;;10.00;99.90;;;;;;5027943;28;20223;-79
2022/11/10 08:18:18;;;;;;;6.18;5.68;;;10.00;99.90;;;;;;5036706;28;21004;-74
2022/11/10 08:20:46;;;;;;;6.55;5.95;;;9.90;99.90;;;;;;5027012;28;20199;-76
2022/11/10 08:23:13;;;;;;;6.45;5.95;;;10.00;99.90;;;;;;5029518;28;20300;-76
2022/11/10 08:25:40;;;;;;;5.68;5.25;;;10.00;99.90;;;;;;5034461;28;20219;-78
2022/11/10 08:28:09;;;;;;;6.43;5.93;;;10.10;99.90;;;;;;5024792;28;20223;-76
2022/11/10 08:30:38;;;;;;;5.35;4.85;;;10.10;99.90;;;;;;5029258;28;20824;-77
2022/11/10 08:33:07;;;;;;;5.68;5.25;;;10.20;99.90;;;;;;5033766;28;20227;-78
2022/11/10 08:35:37;;;;;;;6.07;5.57;;;10.30;99.90;;;;;;5033883;28;20638;-79
2022/11/10 08:38:08;;;;;;;5.93;5.53;;;10.40;99.90;;;;;;5029113;28;20224;-84
2022/11/10 08:40:35;;;;;;;5.28;4.88;;;10.40;99.90;;;;;;5031106;28;20188;-76
2022/11/10 08:43:06;;;;;;;6.03;5.53;;;10.50;99.90;;;;;;5031313;28;20606;-77
2022/11/10 08:45:34;;;;;;;7.78;6.95;;;10.60;99.90;;;;;;5028390;28;20767;-76
2022/11/10 08:48:04;;;;;;;8.65;7.85;;;10.70;99.90;;;;;;5019600;28;20219;-76
2022/11/10 08:50:31;;;;;;;7.93;7.22;;;10.90;99.90;;;;;;5030069;28;20202;-79
2022/11/10 08:53:03;;;;;;;9.40;7.63;;;11.70;99.90;;;;;;5030047;28;20216;-78
2022/11/10 08:55:31;;;;;;;6.97;6.38;;;12.60;99.90;;;;;;5028010;28;20235;-81
2022/11/10 08:58:03;;;;;;;7.15;6.50;;;13.70;99.90;;;;;;5026633;28;20218;-80
2022/11/10 09:00:31;;;;;;;6.72;6.07;;;14.40;99.90;;;;;;5032047;28;20211;-80
2022/11/10 09:03:05;;;;;;;6.53;5.95;;;15.20;99.90;;;;;;5035690;28;20575;-76
2022/11/10 09:05:32;;;;;;;6.55;5.85;;;16.20;99.90;;;;;;5028463;28;20266;-76
2022/11/10 09:07:59;;;;;;;6.53;5.93;;;17.50;99.90;;;;;;5032790;28;20215;-80
2022/11/10 09:10:27;;;;;;;5.90;5.40;;;18.40;99.90;;;;;;5025406;28;20227;-78
2022/11/10 09:12:54;;;;;;;7.28;5.90;;;18.70;99.90;;;;;;5029261;28;20232;-76
2022/11/10 09:15:21;;;;;;;6.85;6.10;;;18.70;99.90;;;;;;5026407;28;20227;-78
2022/11/10 09:17:49;;;;;;;7.63;6.30;;;18.60;99.90;;;;;;5028147;28;20224;-77
2022/11/10 09:20:16;;;;;;;6.75;5.93;;;18.50;99.90;;;;;;5034479;28;20203;-81
2022/11/10 09:22:43;;;;;;;5.05;4.65;;;19.00;99.90;;;;;;5031515;28;20214;-76
2022/11/10 09:25:10;;;;;;;6.28;5.35;;;19.10;99.90;;;;;;5035852;28;20219;-79
2022/11/10 09:27:39;;;;;;;5.85;5.35;;;19.00;99.90;;;;;;5029523;28;20594;-79
2022/11/10 09:30:07;;;;;;;5.93;5.30;;;19.20;99.90;;;;;;5024179;28;20388;-78
2022/11/10 09:32:35;;;;;;;5.90;5.32;;;18.90;99.90;;;;;;5024179;28;20227;-85
2022/11/10 09:35:02;;;;;;;6.35;5.75;;;18.50;99.90;;;;;;5028991;28;20218;-77
2022/11/10 09:37:29;;;;;;;5.90;5.40;;;17.90;99.90;;;;;;5031000;28;20223;-79
2022/11/10 09:39:58;;;;;;;5.10;4.60;;;17.30;99.90;;;;;;5029844;28;20701;-76
2022/11/10 09:42:33;;;;;;;5.43;4.93;;;17.10;99.90;;;;;;5029019;28;20215;-75
2022/11/10 09:45:06;;;;;;;5.35;4.75;;;17.20;99.90;;;;;;5028450;28;20207;-75
2022/11/10 09:47:41;;;;;;;5.90;5.25;;;17.30;99.90;;;;;;5026496;28;20771;-73
2022/11/10 09:50:14;;;;;;;5.50;4.97;;;17.10;99.90;;;;;;5021537;28;20223;-75
2022/11/10 09:52:42;;;;;;;6.65;4.90;;;17.60;99.90;;;;;;5027723;28;20211;-75
2022/11/10 09:55:25;;;;;;;5.97;5.32;;;18.10;99.90;;;;;;5025115;28;20720;-75
2022/11/10 09:57:55;;;;;;;6.90;5.07;;;18.40;99.90;;;;;;5026390;28;20234;-76
2022/11/10 10:00:24;;;;;;;7.00;5.38;;;18.80;99.90;;;;;;5028226;28;20211;-75
2022/11/10 10:02:56;;;;;;;5.05;4.50;;;18.90;99.90;;;;;;5023643;28;20316;-75
2022/11/10 10:05:38;;;;;;;4.63;4.22;;;19.00;99.90;;;;;;5021844;28;20894;-75
2022/11/10 10:08:07;;;;;;;4.68;4.28;;;19.10;99.90;;;;;;5023343;28;20227;-76
2022/11/10 10:10:39;;;;;;;4.18;3.88;;;19.00;99.90;;;;;;5023539;28;20867;-77
2022/11/10 10:13:23;;;;;;;4.03;3.45;;;18.80;99.90;;;;;;5022828;28;20676;-75
2022/11/10 10:16:06;;;;;;;4.90;3.45;;;18.70;99.90;;;;;;5027769;28;20235;-74
2022/11/10 10:18:40;;;;;;;3.60;3.30;;;18.70;99.90;;;;;;5025074;28;20242;-75
2022/11/10 10:21:27;;;;;;;3.83;3.53;;;19.10;99.90;;;;;;5028606;28;20228;-75
2022/11/10 10:23:57;;;;;;;4.20;3.80;;;19.10;99.90;;;;;;5033309;28;20217;-76
2022/11/10 10:26:29;;;;;;;5.15;4.65;;;19.00;99.90;;;;;;5027790;28;20216;-74
2022/11/10 10:28:58;;;;;;;4.95;4.18;;;18.90;99.90;;;;;;5019737;28;20674;-77
2022/11/10 10:31:40;;;;;;;4.85;4.32;;;18.90;99.90;;;;;;5024009;28;20200;-75
2022/11/10 10:34:12;;;;;;;4.30;3.90;;;18.80;99.90;;;;;;5034133;28;20223;-76
2022/11/10 10:36:39;;;;;;;4.18;3.78;;;18.80;99.90;;;;;;5022711;28;20626;-75
2022/11/10 10:39:12;;;;;;;3.28;3.08;;;19.00;99.90;;;;;;5023622;28;20200;-75
2022/11/10 10:41:39;;;;;;;3.78;3.30;;;19.20;99.90;;;;;;5020297;28;20670;-74
2022/11/10 10:44:12;;;;;;;3.35;3.05;;;19.40;99.90;;;;;;5032262;28;20195;-77
2022/11/10 10:46:46;;;;;;;3.90;3.53;;;19.60;99.90;;;;;;5030759;28;20223;-75
2022/11/10 10:49:18;;;;;;;3.88;3.58;;;19.70;99.90;;;;;;5023160;28;20219;-74
2022/11/10 10:51:46;;;;;;;4.47;4.05;;;19.40;99.90;;;;;;5032848;28;20199;-74
2022/11/10 10:54:27;;;;;;;4.07;3.78;;;19.10;99.90;;;;;;5030729;28;20218;-73
2022/11/10 10:57:06;;;;;;;4.45;4.05;;;18.90;99.90;;;;;;5030231;28;20727;-76
2022/11/10 10:59:34;;;;;;;5.30;3.90;;;18.90;99.90;;;;;;5032353;28;20210;-73
2022/11/10 11:02:02;;;;;;;4.40;3.40;;;19.10;99.90;;;;;;5035354;28;20717;-78
2022/11/10 11:04:33;;;;;;;5.50;3.75;;;19.30;99.90;;;;;;5030831;28;20224;-74
2022/11/10 11:07:02;;;;;;;6.22;4.25;;;19.30;99.90;;;;;;5023886;28;20225;-79
2022/11/10 11:09:39;;;;;;;4.75;4.07;;;19.30;99.90;;;;;;5032802;28;20322;-74
2022/11/10 11:12:08;;;;;;;4.05;3.65;;;19.50;99.90;;;;;;5033071;28;20222;-74
2022/11/10 11:14:35;;;;;;;3.85;3.10;;;19.60;99.90;;;;;;5028385;28;20196;-74
2022/11/10 11:17:13;;;;;;;4.55;4.15;;;19.70;99.90;;;;;;5025866;28;20227;-76
2022/11/10 11:19:40;;;;;;;5.07;3.65;;;19.60;99.90;;;;;;5028818;28;20204;-74
2022/11/10 11:22:27;;;;;;;3.80;3.50;;;19.60;99.90;;;;;;5023145;28;20756;-74
2022/11/10 11:25:02;;;;;;;4.35;3.95;;;19.70;99.90;;;;;;5032223;28;20599;-74
2022/11/10 11:27:36;;;;;;;4.07;3.67;;;19.80;99.90;;;;;;5026106;28;20221;-73
2022/11/10 11:30:11;;;;;;;4.20;3.78;;;19.80;99.90;;;;;;5025462;28;20717;-73
2022/11/10 11:33:20;;;;;;;4.57;3.85;;;19.60;99.90;;;;;;5021414;28;20288;-74
2022/11/10 11:35:52;;;;;;;4.82;3.70;;;19.30;99.90;;;;;;5025041;28;20222;-73
2022/11/10 11:38:28;;;;;;;3.47;3.13;;;19.30;99.90;;;;;;5028904;28;20285;-73
2022/11/10 11:41:09;;;;;;;4.15;3.50;;;19.30;99.90;;;;;;5029460;28;20197;-74
2022/11/10 11:44:09;;;;;;;3.90;3.55;;;19.30;99.90;;;;;;5026105;28;20227;-73
2022/11/10 11:46:46;;;;;;;3.60;3.30;;;19.40;99.90;;;;;;5022919;28;20218;-74
2022/11/10 11:49:35;;;;;;;3.90;3.60;;;19.50;99.90;;;;;;5026850;28;20233;-74
2022/11/10 11:52:08;;;;;;;3.58;3.25;;;19.70;99.90;;;;;;5024358;28;20219;-74
2022/11/10 11:54:52;;;;;;;3.53;3.22;;;19.70;99.90;;;;;;5023988;28;20196;-73
2022/11/10 11:57:30;;;;;;;4.28;3.60;;;19.90;99.90;;;;;;5026562;28;20234;-74
2022/11/10 12:00:09;;;;;;;3.88;3.47;;;19.80;99.90;;;;;;5027466;28;20207;-73
2022/11/10 12:03:12;;;;;;;4.00;3.60;;;19.80;99.90;;;;;;5027247;28;20225;-75
2022/11/10 12:05:51;;;;;;;3.88;3.58;;;20.00;99.90;;;;;;5021439;28;20581;-74
2022/11/10 12:08:29;;;;;;;4.55;3.65;;;20.00;99.90;;;;;;5024728;28;20215;-74
2022/11/10 12:11:07;;;;;;;3.75;3.45;;;20.00;99.90;;;;;;5023217;28;20223;-74
2022/11/10 12:13:43;;;;;;;3.60;3.30;;;20.00;99.90;;;;;;5029582;28;20219;-73
2022/11/10 12:16:19;;;;;;;3.42;3.13;;;20.00;99.90;;;;;;5027230;28;20223;-74
2022/11/10 12:18:52;;;;;;;3.35;3.05;;;20.00;99.90;;;;;;5021960;28;20222;-73
2022/11/10 12:21:27;;;;;;;3.97;3.60;;;19.90;99.90;;;;;;5026682;28;20211;-74
2022/11/10 12:24:24;;;;;;;3.95;3.65;;;19.80;99.90;;;;;;5027802;28;20215;-74
2022/11/10 12:26:55;;;;;;;6.22;3.10;;;19.90;99.90;;;;;;5012130;28;20227;-74
2022/11/10 12:29:30;;;;;;;3.78;3.47;;;19.80;99.90;;;;;;5020854;28;20203;-74
2022/11/10 12:32:02;;;;;;;4.43;3.47;;;19.60;99.90;;;;;;5024393;28;20230;-73
2022/11/10 12:34:36;;;;;;;3.60;3.20;;;19.60;99.90;;;;;;5030591;28;20203;-75
2022/11/10 12:37:08;;;;;;;3.95;3.60;;;19.50;99.90;;;;;;5023443;28;20227;-74
2022/11/10 12:39:43;;;;;;;3.55;3.25;;;19.50;99.90;;;;;;5027963;28;20250;-74
2022/11/10 12:42:15;;;;;;;3.40;3.10;;;19.50;99.90;;;;;;5023273;28;20214;-73
2022/11/10 12:45:05;;;;;;;3.13;2.92;;;19.50;99.90;;;;;;5029032;28;20219;-74
2022/11/10 12:47:39;;;;;;;4.30;2.83;;;19.60;99.90;;;;;;5017094;28;20674;-74
2022/11/10 12:50:46;;;;;;;3.00;2.75;;;19.60;99.90;;;;;;5022370;28;20223;-74
2022/11/10 12:53:21;;;;;;;2.80;2.60;;;19.50;99.90;;;;;;4980811;28;20703;-74
2022/11/10 12:55:54;;;;;;;4.10;3.10;;;19.30;99.90;;;;;;4977030;28;20313;-75
2022/11/10 12:58:22;;;;;;;3.70;2.90;;;19.30;99.90;;;;;;5002808;28;20277;-75
2022/11/10 13:00:57;;;;;;;2.65;2.45;;;19.20;99.90;;;;;;5025438;28;20717;-75
2022/11/10 13:03:31;;;;;;;3.45;3.13;;;19.10;99.90;;;;;;5026688;28;20211;-75
2022/11/10 13:06:00;;;;;;;3.53;3.22;;;19.10;99.90;;;;;;5026820;28;20231;-75
2022/11/10 13:08:32;;;;;;;3.00;2.80;;;19.10;99.90;;;;;;5027077;28;20215;-74
2022/11/10 13:11:04;;;;;;;3.20;2.97;;;19.10;99.90;;;;;;5026547;28;20589;-75
2022/11/10 13:13:40;;;;;;;3.10;2.90;;;19.00;99.90;;;;;;5023868;28;20219;-74
2022/11/10 13:16:09;;;;;;;3.40;3.10;;;18.70;99.90;;;;;;5027676;28;20310;-74
2022/11/10 13:19:01;;;;;;;3.35;2.97;;;18.60;99.90;;;;;;5027672;28;20705;-75
2022/11/10 13:22:09;;;;;;;3.00;2.80;;;18.50;99.90;;;;;;5023682;28;20200;-75
2022/11/10 13:24:39;;;;;;;3.40;3.10;;;18.50;99.90;;;;;;5028018;28;20262;-76
2022/11/10 13:27:11;;;;;;;2.92;2.72;;;18.40;99.90;;;;;;5026026;28;20219;-76
2022/11/10 13:29:56;;;;;;;3.33;2.85;;;18.20;99.90;;;;;;5029177;28;20198;-75